Time;durP1;ratioP1;P1;durP2;ratioP2;P2;SDS_P1;SDS_P2;PMS_P1;PMS_P2;Temp;Humidity;BMP_temperature;BMP_pressure;BME280_temperature;BME280_humidity;BME280_pressure;Samples;Min_cycle;Max_cycle;Signal;HPM_P1;HPM_P2
2022/05/15 06:29:39;;;;;;;;;;;;;;;;;;5646108;23;19931;-76
2022/05/15 06:32:05;;;;;;;;;;;;;;;;;;4958097;29;19922;-75
2022/05/15 06:34:30;;;;;;;;;;;;;;;;;;4957341;29;19922;-76
2022/05/15 06:36:55;;;;;;;;;;;;;;;;;;4940952;29;20013;-77
2022/05/15 06:39:21;;;;;;;;;;;;;;;;;;4938314;29;20378;-76
2022/05/15 06:41:50;;;;;;;;;;;;;;;;;;4938727;29;19966;-77
2022/05/15 06:44:15;;;;;;;;;;;;;;;;;;4939224;29;19975;-77
2022/05/15 06:46:40;;;;;;;;;;;;;;;;;;4938851;29;19918;-77
2022/05/15 06:49:06;;;;;;;;;;;;;;;;;;4938791;29;20373;-77
2022/05/15 06:51:31;;;;;;;;;;;;;;;;;;4939027;29;19919;-76
2022/05/15 06:53:56;;;;;;;;;;;;;;;;;;4938984;29;19959;-76
2022/05/15 06:59:05;;;;;;;;;;;;;;;;;;4938627;29;20035;-76
2022/05/15 07:01:31;;;;;;;;;;;;;;;;;;4938704;29;20390;-75
2022/05/15 07:03:57;;;;;;;;;;;;;;;;;;4921646;29;19922;-75
2022/05/15 18:11:19;;;;;;;9.73;8.73;;;;;;;;;;4936717;29;20455;-75
2022/05/15 18:13:45;;;;;;;15.02;9.10;;;;;;;;;;4939380;29;20044;-75
2022/05/15 18:16:10;;;;;;;10.77;8.95;;;;;;;;;;4939286;29;20032;-76
2022/05/15 18:18:36;;;;;;;9.88;8.98;;;;;;;;;;4939249;29;20031;-76
2022/05/15 18:21:01;;;;;;;12.75;11.45;;;;;;;;;;4938964;29;20072;-75
2022/05/15 18:23:28;;;;;;;10.32;9.43;;;;;;;;;;4939144;29;20036;-76
2022/05/15 18:25:54;;;;;;;12.57;11.23;;;;;;;;;;4939086;29;20055;-76
2022/05/15 18:28:19;;;;;;;11.82;9.73;;;;;;;;;;4938852;29;20180;-76
2022/05/15 18:30:46;;;;;;;11.95;10.10;;;;;;;;;;4938934;29;20031;-75
2022/05/15 18:33:12;;;;;;;10.60;9.57;;;;;;;;;;4939009;29;20024;-77
2022/05/15 18:35:37;;;;;;;11.70;10.32;;;;;;;;;;4938811;29;20493;-77
2022/05/15 18:38:03;;;;;;;10.00;9.02;;;;;;;;;;4938653;29;20103;-76
2022/05/15 18:40:29;;;;;;;10.70;9.60;;;;;;;;;;4921577;29;20119;-77
2022/05/15 18:42:59;;;;;;;11.60;10.00;;;;;;;;;;4938744;29;20545;-76
2022/05/15 18:45:25;;;;;;;12.13;10.98;;;;;;;;;;4938672;29;20455;-77
2022/05/15 18:47:51;;;;;;;10.85;9.75;;;;;;;;;;4938535;29;20031;-77
2022/05/15 18:55:44;;;;;;;11.55;10.20;;;;;;;;;;4938815;29;20542;-78
2022/05/15 18:58:10;;;;;;;11.85;10.02;;;;;;;;;;4938294;29;20039;-79
2022/05/15 19:00:36;;;;;;;11.07;10.00;;;;;;;;;;4938551;29;20059;-75
2022/05/15 19:03:02;;;;;;;15.20;9.57;;;;;;;;;;4938462;29;20031;-75
2022/05/15 19:05:28;;;;;;;12.52;9.35;;;;;;;;;;4938598;29;20036;-79
2022/05/15 19:07:54;;;;;;;10.82;9.82;;;;;;;;;;4938378;29;20050;-79
2022/05/15 19:10:20;;;;;;;10.32;9.32;;;;;;;;;;4938350;29;20538;-79
2022/05/15 19:12:45;;;;;;;10.15;9.25;;;;;;;;;;4938034;29;20048;-80
2022/05/15 19:15:11;;;;;;;10.52;9.27;;;;;;;;;;4920975;29;20067;-81
2022/05/15 19:17:37;;;;;;;10.88;9.88;;;;;;;;;;4938100;29;20091;-77
2022/05/15 19:20:05;;;;;;;10.32;9.35;;;;;;;;;;4938201;29;20462;-75
2022/05/15 19:22:30;;;;;;;10.95;9.88;;;;;;;;;;4937895;29;20509;-76
2022/05/15 19:24:56;;;;;;;10.70;9.75;;;;;;;;;;4937859;29;20028;-76
2022/05/15 19:27:22;;;;;;;11.30;10.20;;;;;;;;;;4937697;29;20028;-76
2022/05/15 19:29:47;;;;;;;11.00;9.90;;;;;;;;;;4938146;29;20027;-77
2022/05/15 19:32:13;;;;;;;11.93;10.52;;;;;;;;;;4937780;29;20111;-75
2022/05/15 19:34:38;;;;;;;10.75;9.75;;;;;;;;;;4937745;29;20143;-75
2022/05/15 19:37:04;;;;;;;11.00;9.88;;;;;;;;;;4937704;29;20055;-75
2022/05/15 19:39:30;;;;;;;11.55;10.45;;;;;;;;;;4937606;29;20044;-74
2022/05/15 19:41:56;;;;;;;11.52;10.10;;;;;;;;;;4937576;29;20056;-75
2022/05/15 19:44:22;;;;;;;12.38;10.60;;;;;;;;;;4937736;29;20035;-75
2022/05/15 19:46:48;;;;;;;11.00;9.85;;;;;;;;;;4937724;29;20062;-76
2022/05/15 19:49:13;;;;;;;11.85;10.60;;;;;;;;;;4937387;29;20035;-74
2022/05/15 19:51:39;;;;;;;10.98;9.88;;;;;;;;;;4937597;29;20032;-75
2022/05/15 19:54:05;;;;;;;11.00;9.88;;;;;;;;;;4937083;29;20031;-75
2022/05/15 19:56:42;;;;;;;10.80;9.70;;;;;;;;;;4937494;29;20035;-75
2022/05/15 19:59:13;;;;;;;11.30;10.20;;;;;;;;;;4937444;29;20110;-75
2022/05/15 20:01:40;;;;;;;12.55;10.40;;;;;;;;;;4937362;29;20028;-76
2022/05/15 20:04:07;;;;;;;10.27;9.38;;;;;;;;;;4936642;29;20074;-75
2022/05/15 20:12:08;;;;;;;11.05;9.93;;;;;;;;;;4937117;29;19941;-75
2022/05/15 20:14:33;;;;;;;11.05;9.95;;;;;;;;;;4937252;29;20505;-75
2022/05/15 20:16:58;;;;;;;11.00;10.00;;;;;;;;;;4937030;29;20059;-78
2022/05/15 20:19:24;;;;;;;11.15;10.02;;;;;;;;;;4937061;29;20478;-78
2022/05/15 20:21:50;;;;;;;11.75;10.63;;;;;;;;;;4936885;29;20360;-76
2022/05/15 20:24:16;;;;;;;12.73;10.07;;;;;;;;;;4936952;29;20031;-75
2022/05/15 20:26:42;;;;;;;14.10;11.02;;;;;;;;;;4936918;29;20020;-75
2022/05/15 20:29:07;;;;;;;12.15;10.95;;;;;;;;;;4937041;29;20486;-75
2022/05/15 20:31:39;;;;;;;11.88;10.05;;;;;;;;;;4919763;29;20475;-77
2022/05/15 20:34:18;;;;;;;13.07;11.25;;;;;;;;;;4937242;29;20578;-74
2022/05/15 20:36:48;;;;;;;12.18;9.90;;;;;;;;;;4936717;29;20168;-75
2022/05/15 20:39:14;;;;;;;11.75;10.60;;;;;;;;;;4936670;29;20028;-76
2022/05/15 20:41:41;;;;;;;12.13;10.93;;;;;;;;;;4936749;29;20042;-75
2022/05/15 20:44:07;;;;;;;14.82;11.70;;;;;;;;;;4936572;29;20493;-75
2022/05/15 20:46:32;;;;;;;11.60;10.35;;;;;;;;;;4936684;29;20035;-76
2022/05/15 20:48:58;;;;;;;11.98;10.73;;;;;;;;;;4919453;29;20055;-75
2022/05/15 20:51:24;;;;;;;11.70;10.50;;;;;;;;;;4936644;29;20084;-75
2022/05/15 20:53:49;;;;;;;11.93;10.52;;;;;;;;;;4936718;29;20031;-74
2022/05/15 20:56:17;;;;;;;13.27;10.98;;;;;;;;;;4936629;29;20028;-75
2022/05/15 20:58:43;;;;;;;14.25;11.23;;;;;;;;;;4936325;29;20165;-75
2022/05/15 21:01:09;;;;;;;12.57;11.38;;;;;;;;;;4936294;29;20058;-75
2022/05/15 21:03:34;;;;;;;11.88;10.68;;;;;;;;;;4936234;29;20036;-75
2022/05/15 21:06:00;;;;;;;11.85;10.73;;;;;;;;;;4936524;29;20352;-75
2022/05/15 21:08:25;;;;;;;11.73;10.63;;;;;;;;;;4936294;29;20044;-75
2022/05/15 21:10:51;;;;;;;12.25;11.05;;;;;;;;;;4935952;29;20448;-75
2022/05/15 21:13:17;;;;;;;11.98;9.93;;;;;;;;;;4936236;29;20438;-75
2022/05/15 21:15:43;;;;;;;12.93;11.10;;;;;;;;;;4938848;29;20055;-75
2022/05/15 21:18:11;;;;;;;12.15;10.45;;;;;;;;;;4940544;29;20019;-75
2022/05/15 21:20:37;;;;;;;12.07;10.65;;;;;;;;;;4940203;29;20032;-75
2022/05/15 21:23:04;;;;;;;11.93;10.73;;;;;;;;;;4940281;29;20020;-76
2022/05/15 21:25:29;;;;;;;13.50;11.57;;;;;;;;;;4940202;29;20490;-74
2022/05/15 21:27:55;;;;;;;12.32;11.00;;;;;;;;;;4939945;29;20172;-74
2022/05/15 21:30:21;;;;;;;11.55;10.38;;;;;;;;;;4939893;29;20068;-74
2022/05/15 21:32:46;;;;;;;11.52;10.48;;;;;;;;;;4940016;29;20027;-74
2022/05/15 21:35:12;;;;;;;12.43;10.85;;;;;;;;;;4939990;29;20055;-74
2022/05/15 21:37:38;;;;;;;12.48;10.93;;;;;;;;;;4940000;29;20047;-74
2022/05/15 21:45:24;;;;;;;11.55;10.38;;;;;;;;;;4939929;29;20592;-74
2022/05/15 21:47:49;;;;;;;12.35;11.25;;;;;;;;;;4939579;29;20124;-74
2022/05/15 21:50:14;;;;;;;12.38;11.13;;;;;;;;;;4939862;29;20482;-74
2022/05/15 21:52:40;;;;;;;11.40;10.27;;;;;;;;;;4939676;29;20028;-74
2022/05/15 21:55:06;;;;;;;13.32;10.90;;;;;;;;;;4939188;29;20057;-75
2022/05/15 21:57:32;;;;;;;11.60;10.43;;;;;;;;;;4938975;29;20478;-73
2022/05/15 22:00:01;;;;;;;15.60;11.32;;;;;;;;;;4939697;29;20035;-76
